Time;durP1;ratioP1;P1;durP2;ratioP2;P2;SDS_P1;SDS_P2;PMS_P1;PMS_P2;Temp;Humidity;BMP_temperature;BMP_pressure;BME280_temperature;BME280_humidity;BME280_pressure;Samples;Min_cycle;Max_cycle;Signal;HPM_P1;HPM_P2
2022/08/27 00:01:09;;;;;;;6.57;3.60;;;;;;;-148.16;100.00;58328.31;5058876;28;20435;-57
2022/08/27 00:03:54;;;;;;;6.25;3.63;;;;;;;-148.16;100.00;58328.31;5043254;28;20045;-58
2022/08/27 00:06:39;;;;;;;5.55;3.33;;;;;;;-148.16;100.00;58328.31;5029964;28;20416;-57
2022/08/27 00:09:24;;;;;;;8.57;3.58;;;;;;;-148.16;100.00;58328.31;5042648;28;20057;-58
2022/08/27 00:12:09;;;;;;;8.25;3.58;;;;;;;-148.16;100.00;58328.31;5029778;28;20148;-57
2022/08/27 00:14:54;;;;;;;4.68;3.67;;;;;;;-148.16;100.00;58328.31;5028908;28;20033;-59
2022/08/27 00:17:38;;;;;;;9.60;3.30;;;;;;;-148.16;100.00;58328.31;5029353;28;20377;-58
2022/08/27 00:20:24;;;;;;;7.10;3.10;;;;;;;-148.16;100.00;58328.31;5041365;28;20041;-57
2022/08/27 00:23:09;;;;;;;4.80;3.10;;;;;;;-148.16;100.00;58328.31;5029775;28;20048;-58
2022/08/27 00:25:54;;;;;;;5.70;2.90;;;;;;;-148.16;100.00;58328.31;5037793;28;20492;-58
2022/08/27 00:28:40;;;;;;;8.35;3.42;;;;;;;-148.16;100.00;58328.31;5033706;28;20046;-58
2022/08/27 00:31:25;;;;;;;7.47;3.50;;;;;;;-148.16;100.00;58328.31;5029877;28;20076;-58
2022/08/27 00:34:10;;;;;;;5.65;2.90;;;;;;;-148.16;100.00;58328.31;5026608;28;20065;-58
2022/08/27 00:36:54;;;;;;;6.35;2.92;;;;;;;-148.16;100.00;58328.31;5041792;28;20084;-58
2022/08/27 00:39:39;;;;;;;6.32;3.10;;;;;;;-148.16;100.00;58328.31;5028706;28;20408;-58
2022/08/27 00:42:24;;;;;;;6.90;3.10;;;;;;;-148.16;100.00;58328.31;5028829;28;20037;-58
2022/08/27 00:45:09;;;;;;;6.22;3.47;;;;;;;-148.16;100.00;58328.31;5030494;28;20444;-58
2022/08/27 00:47:56;;;;;;;6.82;3.03;;;;;;;-148.16;100.00;58328.31;5028362;28;20099;-58
2022/08/27 00:50:45;;;;;;;6.35;3.72;;;;;;;-148.16;100.00;58328.31;5029792;28;20126;-57
2022/08/27 00:53:32;;;;;;;8.38;3.42;;;;;;;-148.16;100.00;58328.31;5030480;28;20116;-58
2022/08/27 00:56:25;;;;;;;5.38;3.08;;;;;;;-148.16;100.00;58328.31;5029326;28;20095;-58
2022/08/27 00:59:13;;;;;;;7.20;3.47;;;;;;;-148.16;100.00;58328.31;5027744;28;20128;-58
2022/08/27 01:02:17;;;;;;;12.65;3.90;;;;;;;-148.16;100.00;58328.31;5028347;28;20099;-58
2022/08/27 01:05:06;;;;;;;7.53;3.70;;;;;;;-148.16;100.00;58328.31;5028102;28;20029;-58
2022/08/27 01:07:56;;;;;;;10.35;3.45;;;;;;;-148.16;100.00;58328.31;5026434;28;20052;-58
2022/08/27 01:10:43;;;;;;;6.32;3.55;;;;;;;-148.16;100.00;58328.31;5028074;28;20085;-58
2022/08/27 01:13:30;;;;;;;9.07;3.40;;;;;;;-148.16;100.00;58328.31;5026876;28;20044;-58
2022/08/27 01:16:25;;;;;;;5.85;3.15;;;;;;;-148.16;100.00;58328.31;5013131;28;20041;-58
2022/08/27 01:19:36;;;;;;;8.52;2.85;;;;;;;-148.16;100.00;58328.31;5057520;28;20045;-59
2022/08/27 01:22:39;;;;;;;8.13;3.25;;;;;;;-148.16;100.00;58328.31;5033002;28;20045;-58
2022/08/27 01:25:25;;;;;;;5.00;2.83;;;;;;;-148.16;100.00;58328.31;5044272;28;20044;-58
2022/08/27 01:28:11;;;;;;;4.90;2.80;;;;;;;-148.16;100.00;58328.31;5054038;28;20051;-58
2022/08/27 01:30:55;;;;;;;6.82;2.67;;;;;;;-148.16;100.00;58328.31;5047818;28;20041;-58
2022/08/27 01:33:51;;;;;;;5.30;2.70;;;;;;;-148.16;100.00;58328.31;5050248;28;20476;-57
2022/08/27 01:36:36;;;;;;;5.70;2.72;;;;;;;-148.16;100.00;58328.31;5035312;28;20038;-58
2022/08/27 01:39:20;;;;;;;4.82;2.83;;;;;;;-148.16;100.00;58328.31;5034358;28;20072;-58
2022/08/27 01:42:12;;;;;;;5.97;2.97;;;;;;;-148.16;100.00;58328.31;5043621;28;20453;-58
2022/08/27 01:45:01;;;;;;;5.15;2.50;;;;;;;-148.16;100.00;58328.31;5033948;28;20052;-58
2022/08/27 01:47:46;;;;;;;3.25;2.47;;;;;;;-148.16;100.00;58328.31;5034926;28;20107;-58
2022/08/27 01:50:34;;;;;;;5.40;2.60;;;;;;;-148.16;100.00;58328.31;5033779;28;20532;-59
2022/08/27 01:53:24;;;;;;;5.50;2.60;;;;;;;-148.16;100.00;58328.31;5032227;28;20037;-58
2022/08/27 01:56:10;;;;;;;4.63;2.65;;;;;;;-148.16;100.00;58328.31;5031721;28;20072;-58
2022/08/27 01:58:54;;;;;;;10.35;2.90;;;;;;;-148.16;100.00;58328.31;5033905;28;20033;-58
2022/08/27 02:01:39;;;;;;;4.05;2.63;;;;;;;-148.16;100.00;58328.31;5039016;28;20147;-58
2022/08/27 02:04:24;;;;;;;3.22;2.30;;;;;;;-148.16;100.00;58328.31;5041171;28;20132;-60
2022/08/27 02:07:08;;;;;;;5.15;2.42;;;;;;;-148.16;100.00;58328.31;5031002;28;20114;-58
2022/08/27 02:09:53;;;;;;;4.35;2.15;;;;;;;-148.16;100.00;58328.31;5031963;28;20092;-58
2022/08/27 02:12:38;;;;;;;6.57;2.28;;;;;;;-148.16;100.00;58328.31;5033040;28;20034;-58
2022/08/27 02:15:23;;;;;;;3.63;2.22;;;;;;;-148.16;100.00;58328.31;5030595;28;20046;-58
2022/08/27 02:18:10;;;;;;;6.50;2.22;;;;;;;-148.16;100.00;58328.31;5031159;28;20537;-59
2022/08/27 02:20:54;;;;;;;5.30;2.72;;;;;;;-148.16;100.00;58328.31;5029297;28;20073;-58
2022/08/27 02:23:41;;;;;;;3.75;2.28;;;;;;;-148.16;100.00;58328.31;5032084;28;20385;-59
2022/08/27 02:26:26;;;;;;;5.38;2.35;;;;;;;-148.16;100.00;58328.31;5031916;28;20388;-58
2022/08/27 02:29:11;;;;;;;4.70;2.33;;;;;;;-148.16;100.00;58328.31;5028383;28;20160;-59
2022/08/27 02:31:56;;;;;;;3.47;1.98;;;;;;;-148.16;100.00;58328.31;5030941;28;20144;-58
2022/08/27 02:34:40;;;;;;;7.13;2.67;;;;;;;-148.16;100.00;58328.31;5030316;28;20051;-58
2022/08/27 02:37:25;;;;;;;4.80;2.00;;;;;;;-148.16;100.00;58328.31;5030751;28;20041;-58
2022/08/27 02:40:11;;;;;;;6.05;2.38;;;;;;;-148.16;100.00;58328.31;5031511;28;20033;-58
2022/08/27 02:42:56;;;;;;;6.00;1.95;;;;;;;-148.16;100.00;58328.31;5030867;28;20056;-58
2022/08/27 02:45:41;;;;;;;3.67;2.38;;;;;;;-148.16;100.00;58328.31;5031301;28;20116;-58
2022/08/27 02:48:26;;;;;;;3.42;2.30;;;;;;;-148.16;100.00;58328.31;5029900;28;20112;-58
2022/08/27 02:51:10;;;;;;;3.58;2.40;;;;;;;-148.16;100.00;58328.31;5033904;28;20041;-59
2022/08/27 02:53:55;;;;;;;6.60;1.95;;;;;;;-148.16;100.00;58328.31;5030216;28;20029;-58
2022/08/27 02:56:40;;;;;;;5.15;1.95;;;;;;;-148.16;100.00;58328.31;5029862;28;20159;-58
2022/08/27 02:59:24;;;;;;;4.50;2.08;;;;;;;-148.16;100.00;58328.31;5029635;28;20080;-58
2022/08/27 03:02:09;;;;;;;4.47;2.03;;;;;;;-148.16;100.00;58328.31;5030746;28;20073;-58
2022/08/27 03:04:54;;;;;;;2.53;2.00;;;;;;;-148.16;100.00;58328.31;5029426;28;20045;-58
2022/08/27 03:07:40;;;;;;;4.40;2.25;;;;;;;-148.16;100.00;58328.31;5030098;28;20069;-59
2022/08/27 03:10:25;;;;;;;3.78;2.25;;;;;;;-148.16;100.00;58328.31;5030997;28;20102;-57
2022/08/27 03:13:09;;;;;;;6.95;2.10;;;;;;;-148.16;100.00;58328.31;5031892;28;20041;-58
2022/08/27 03:15:54;;;;;;;2.83;1.75;;;;;;;-148.16;100.00;58328.31;5030354;28;20381;-58
2022/08/27 03:18:38;;;;;;;5.55;2.28;;;;;;;-148.16;100.00;58328.31;5036606;28;20132;-58
2022/08/27 03:21:24;;;;;;;7.55;2.40;;;;;;;-148.16;100.00;58328.31;5031557;28;20457;-58
2022/08/27 03:24:09;;;;;;;3.67;2.00;;;;;;;-148.16;100.00;58328.31;5047979;28;20068;-58
2022/08/27 03:26:53;;;;;;;3.58;2.00;;;;;;;-148.16;100.00;58328.31;5042030;28;20045;-58
2022/08/27 03:29:38;;;;;;;3.80;2.13;;;;;;;-148.16;100.00;58328.31;5045431;28;20049;-58
2022/08/27 03:32:23;;;;;;;3.72;2.28;;;;;;;-148.16;100.00;58328.31;5044012;28;20137;-58
2022/08/27 03:35:08;;;;;;;5.40;2.30;;;;;;;-148.16;100.00;58328.31;5031770;28;20041;-57
2022/08/27 03:37:53;;;;;;;4.43;1.65;;;;;;;-148.16;100.00;58328.31;5040058;28;20045;-58
2022/08/27 03:40:37;;;;;;;3.50;2.03;;;;;;;-148.16;100.00;58328.31;5039480;28;20049;-58
2022/08/27 03:43:22;;;;;;;7.03;2.08;;;;;;;-148.16;100.00;58328.31;5029887;28;20532;-57
2022/08/27 03:46:07;;;;;;;4.30;2.28;;;;;;;-148.16;100.00;58328.31;5057804;28;20487;-58
2022/08/27 03:48:52;;;;;;;5.03;2.00;;;;;;;-148.16;100.00;58328.31;5031019;28;20099;-58
2022/08/27 03:51:38;;;;;;;4.35;2.30;;;;;;;-148.16;100.00;58328.31;5029477;28;20081;-59
2022/08/27 03:54:23;;;;;;;5.03;2.47;;;;;;;-148.16;100.00;58328.31;5029717;28;20045;-58
2022/08/27 03:57:09;;;;;;;5.20;2.00;;;;;;;-148.16;100.00;58328.31;5033445;28;20045;-58
2022/08/27 03:59:54;;;;;;;3.72;2.20;;;;;;;-148.16;100.00;58328.31;5030346;28;20042;-58
2022/08/27 04:02:40;;;;;;;5.07;2.47;;;;;;;-148.16;100.00;58328.31;5031440;28;20072;-58
2022/08/27 04:05:25;;;;;;;5.80;2.30;;;;;;;-148.16;100.00;58328.31;5030745;28;20044;-58
2022/08/27 04:08:09;;;;;;;4.80;2.30;;;;;;;-148.16;100.00;58328.31;5038847;28;20087;-57
2022/08/27 04:10:55;;;;;;;4.40;2.20;;;;;;;-148.16;100.00;58328.31;5037672;28;20064;-59
2022/08/27 04:13:40;;;;;;;3.65;2.13;;;;;;;-148.16;100.00;58328.31;5035831;28;20038;-58
2022/08/27 04:16:25;;;;;;;5.03;2.25;;;;;;;-148.16;100.00;58328.31;5036343;28;20052;-58
2022/08/27 04:19:11;;;;;;;2.97;2.10;;;;;;;-148.16;100.00;58328.31;5042724;28;20037;-58
2022/08/27 04:22:02;;;;;;;5.65;2.47;;;;;;;-148.16;100.00;58328.31;5038373;28;20055;-58
2022/08/27 04:24:46;;;;;;;3.17;1.77;;;;;;;-148.16;100.00;58328.31;5037381;28;20037;-58
2022/08/27 04:27:31;;;;;;;5.03;2.08;;;;;;;-148.16;100.00;58328.31;5030449;28;20121;-58
2022/08/27 04:30:15;;;;;;;4.57;2.20;;;;;;;-148.16;100.00;58328.31;5077526;28;20086;-58
2022/08/27 04:33:00;;;;;;;7.07;1.95;;;;;;;-148.16;100.00;58328.31;5030439;28;20029;-59
2022/08/27 04:35:45;;;;;;;2.55;1.58;;;;;;;-148.16;100.00;58328.31;5035465;28;20480;-58
2022/08/27 04:38:29;;;;;;;3.65;1.90;;;;;;;-148.16;100.00;58328.31;5030623;28;20504;-60
2022/08/27 04:41:21;;;;;;;5.85;2.10;;;;;;;-148.16;100.00;58328.31;5047180;28;20048;-60
2022/08/27 04:44:09;;;;;;;3.75;2.30;;;;;;;-148.16;100.00;58328.31;5056654;28;20486;-58
2022/08/27 04:46:56;;;;;;;3.03;2.42;;;;;;;-148.16;100.00;58328.31;5036256;28;20100;-58
2022/08/27 04:49:40;;;;;;;4.55;2.78;;;;;;;-148.16;100.00;58328.31;5030463;28;20092;-57
2022/08/27 04:52:25;;;;;;;6.50;2.40;;;;;;;-148.16;100.00;58328.31;5040092;28;20073;-57
2022/08/27 04:55:09;;;;;;;6.07;2.70;;;;;;;-148.16;100.00;58328.31;5033965;28;20128;-57
2022/08/27 04:57:54;;;;;;;3.53;2.40;;;;;;;-148.16;100.00;58328.31;5033253;28;20498;-58
2022/08/27 05:00:41;;;;;;;4.55;2.30;;;;;;;-148.16;100.00;58328.31;5037130;28;20048;-58
2022/08/27 05:03:27;;;;;;;7.20;2.70;;;;;;;-148.16;100.00;58328.31;5037750;28;20524;-58
2022/08/27 05:06:12;;;;;;;5.32;2.40;;;;;;;-148.16;100.00;58328.31;5035827;28;20045;-58
2022/08/27 05:08:56;;;;;;;7.55;3.50;;;;;;;-148.16;100.00;58328.31;5045600;28;20113;-57
2022/08/27 05:11:42;;;;;;;4.22;2.47;;;;;;;-148.16;100.00;58328.31;5036938;28;20069;-58
2022/08/27 05:14:31;;;;;;;6.00;2.90;;;;;;;-148.16;100.00;58328.31;5039571;28;20469;-58
2022/08/27 05:17:15;;;;;;;4.22;3.10;;;;;;;-148.16;100.00;58328.31;5040752;28;20129;-58
2022/08/27 05:20:00;;;;;;;3.95;2.80;;;;;;;-148.16;100.00;58328.31;5031901;28;20072;-57
2022/08/27 05:22:45;;;;;;;5.95;3.58;;;;;;;-148.16;100.00;58328.31;5031631;28;20076;-57
2022/08/27 05:25:30;;;;;;;5.13;3.00;;;;;;;-148.16;100.00;58328.31;5031233;28;20091;-57
2022/08/27 05:28:16;;;;;;;8.57;3.13;;;;;;;-148.16;100.00;58328.31;5031769;28;20545;-57
2022/08/27 05:31:07;;;;;;;5.32;2.90;;;;;;;-148.16;100.00;58328.31;5031213;28;20129;-58
2022/08/27 05:33:53;;;;;;;4.82;3.05;;;;;;;-148.16;100.00;58328.31;5032157;28;20033;-58
2022/08/27 05:36:39;;;;;;;7.40;3.00;;;;;;;-148.16;100.00;58328.31;5030308;28;20184;-58
2022/08/27 05:39:23;;;;;;;7.13;3.42;;;;;;;-148.16;100.00;58328.31;5060243;28;20053;-58
2022/08/27 05:42:08;;;;;;;4.95;2.95;;;;;;;-148.16;100.00;58328.31;5031175;28;20460;-58
2022/08/27 05:44:53;;;;;;;7.72;2.88;;;;;;;-148.16;100.00;58328.31;5030418;28;20393;-58
2022/08/27 05:47:38;;;;;;;3.67;2.88;;;;;;;-148.16;100.00;58328.31;5030556;28;20120;-59
2022/08/27 05:50:24;;;;;;;7.40;2.80;;;;;;;-148.16;100.00;58328.31;5031047;28;20046;-58
2022/08/27 05:53:11;;;;;;;6.63;2.80;;;;;;;-148.16;100.00;58328.31;5030198;28;20045;-58
2022/08/27 05:55:55;;;;;;;4.40;2.78;;;;;;;-148.16;100.00;58328.31;5034056;28;20107;-58
2022/08/27 06:01:49;;;;;;;5.07;2.72;;;;;;;-148.16;100.00;58328.31;5032160;28;20045;-59
2022/08/27 06:04:35;;;;;;;4.60;2.90;;;;;;;-148.16;100.00;58328.31;5031289;28;20099;-58
2022/08/27 06:07:25;;;;;;;5.18;2.67;;;;;;;-148.16;100.00;58328.31;5030958;28;20049;-58
2022/08/27 06:10:10;;;;;;;6.30;2.92;;;;;;;-148.16;100.00;58328.31;5031796;28;20038;-59
2022/08/27 06:12:56;;;;;;;7.22;3.67;;;;;;;-148.16;100.00;58328.31;5036124;28;20099;-59
2022/08/27 06:15:40;;;;;;;8.02;3.05;;;;;;;-148.16;100.00;58328.31;5043121;28;20079;-58
2022/08/27 06:18:25;;;;;;;9.80;4.32;;;;;;;-148.16;100.00;58328.31;5032321;28;20483;-62
2022/08/27 06:21:11;;;;;;;5.85;3.40;;;;;;;-148.16;100.00;58328.31;5031941;28;20044;-58
2022/08/27 06:23:56;;;;;;;6.13;3.10;;;;;;;-148.16;100.00;58328.31;5030068;28;20200;-59
2022/08/27 06:26:43;;;;;;;6.95;2.72;;;;;;;-148.16;100.00;58328.31;5031256;28;20084;-58
2022/08/27 06:29:33;;;;;;;8.05;2.60;;;;;;;-148.16;100.00;58328.31;5031510;28;20048;-58
2022/08/27 06:32:18;;;;;;;7.10;2.63;;;;;;;-148.16;100.00;58328.31;5057329;28;20187;-58
2022/08/27 06:35:03;;;;;;;8.02;2.60;;;;;;;-148.16;100.00;58328.31;5030536;28;20133;-58
2022/08/27 06:37:49;;;;;;;4.80;2.72;;;;;;;-148.16;100.00;58328.31;5030548;28;20046;-59
2022/08/27 06:40:34;;;;;;;7.78;2.60;;;;;;;-148.16;100.00;58328.31;5030798;28;20480;-58
2022/08/27 06:43:19;;;;;;;5.70;2.42;;;;;;;-148.16;100.00;58328.31;5032963;28;20116;-58
2022/08/27 06:46:13;;;;;;;4.22;2.20;;;;;;;-148.16;100.00;58328.31;5041316;28;20567;-58
2022/08/27 06:48:59;;;;;;;4.43;2.38;;;;;;;-148.16;100.00;58328.31;5024967;28;20049;-58
2022/08/27 06:51:46;;;;;;;4.45;2.40;;;;;;;-148.16;100.00;58328.31;5033242;28;20045;-58
2022/08/27 06:54:31;;;;;;;6.18;3.17;;;;;;;-148.16;100.00;58328.31;5030363;28;20041;-57
2022/08/27 06:57:16;;;;;;;5.53;2.63;;;;;;;-148.16;100.00;58328.31;5043940;28;20063;-58
2022/08/27 07:00:01;;;;;;;4.20;2.22;;;;;;;-148.16;100.00;58328.31;5069515;28;20037;-58
2022/08/27 07:02:45;;;;;;;6.60;2.55;;;;;;;-148.16;100.00;58328.31;5031151;28;20079;-57
2022/08/27 07:05:36;;;;;;;5.30;2.53;;;;;;;-148.16;100.00;58328.31;5030583;28;20075;-58
2022/08/27 07:08:21;;;;;;;4.07;2.58;;;;;;;-148.16;100.00;58328.31;5035778;28;20045;-57
2022/08/27 07:11:10;;;;;;;4.07;2.40;;;;;;;-148.16;100.00;58328.31;5040259;28;20041;-60
2022/08/27 07:13:55;;;;;;;4.32;2.40;;;;;;;-148.16;100.00;58328.31;5033940;28;20053;-58
2022/08/27 07:16:40;;;;;;;4.45;2.00;;;;;;;-148.16;100.00;58328.31;5037954;28;20037;-58
2022/08/27 07:19:26;;;;;;;5.82;2.33;;;;;;;-148.16;100.00;58328.31;5039810;28;20048;-58
2022/08/27 07:22:12;;;;;;;4.65;2.40;;;;;;;-148.16;100.00;58328.31;5047398;28;20041;-59
2022/08/27 07:24:56;;;;;;;5.00;1.90;;;;;;;-148.16;100.00;58328.31;5030310;28;20049;-59
2022/08/27 07:27:41;;;;;;;2.70;1.70;;;;;;;-148.16;100.00;58328.31;5047015;28;20049;-58
2022/08/27 07:30:26;;;;;;;6.28;1.83;;;;;;;-148.16;100.00;58328.31;5039003;28;20140;-58
2022/08/27 07:33:11;;;;;;;4.20;2.03;;;;;;;-148.16;100.00;58328.31;5043782;28;20033;-58
2022/08/27 07:35:56;;;;;;;6.70;2.45;;;;;;;-148.16;100.00;58328.31;5031428;28;20060;-58
2022/08/27 07:38:41;;;;;;;4.40;2.10;;;;;;;-148.16;100.00;58328.31;5038756;28;20045;-58
2022/08/27 07:41:25;;;;;;;4.53;2.08;;;;;;;-148.16;100.00;58328.31;5040476;28;20495;-58
2022/08/27 07:44:26;;;;;;;5.43;2.00;;;;;;;-148.16;100.00;58328.31;5048256;28;20033;-58
2022/08/27 07:47:10;;;;;;;6.50;2.40;;;;;;;-148.16;100.00;58328.31;5033074;28;20079;-58
2022/08/27 07:49:57;;;;;;;4.97;1.90;;;;;;;-148.16;100.00;58328.31;5033521;28;20081;-58
2022/08/27 07:52:42;;;;;;;4.32;2.05;;;;;;;-148.16;100.00;58328.31;5036259;28;20045;-59
2022/08/27 07:55:28;;;;;;;5.47;2.25;;;;;;;-148.16;100.00;58328.31;5050371;28;20047;-59
2022/08/27 07:58:13;;;;;;;5.55;2.17;;;;;;;-148.16;100.00;58328.31;5047508;28;20034;-59
2022/08/27 08:00:58;;;;;;;5.85;1.70;;;;;;;-148.16;100.00;58328.31;5031417;28;20120;-59
2022/08/27 08:03:43;;;;;;;5.63;2.20;;;;;;;-148.16;100.00;58328.31;5032284;28;20350;-59
2022/08/27 08:06:27;;;;;;;6.65;1.98;;;;;;;-148.16;100.00;58328.31;5039965;28;20199;-59
2022/08/27 08:09:12;;;;;;;6.93;2.30;;;;;;;-148.16;100.00;58328.31;5043044;28;20523;-59
2022/08/27 08:11:56;;;;;;;3.38;2.13;;;;;;;-148.16;100.00;58328.31;5043208;28;20037;-60
2022/08/27 08:14:41;;;;;;;7.07;2.65;;;;;;;-148.16;100.00;58328.31;5040842;28;20049;-59
2022/08/27 08:17:26;;;;;;;2.90;2.28;;;;;;;-148.16;100.00;58328.31;5030202;28;20443;-59
2022/08/27 08:20:12;;;;;;;3.90;1.90;;;;;;;-148.16;100.00;58328.31;5031033;28;20396;-59
2022/08/27 08:22:56;;;;;;;4.50;2.17;;;;;;;-148.16;100.00;58328.31;5037118;28;20249;-59
2022/08/27 08:25:41;;;;;;;3.03;2.17;;;;;;;-148.16;100.00;58328.31;5031098;28;20045;-59
2022/08/27 08:28:27;;;;;;;3.75;1.85;;;;;;;-148.16;100.00;58328.31;5035378;28;20045;-59
2022/08/27 08:31:12;;;;;;;4.88;2.38;;;;;;;-148.16;100.00;58328.31;5035922;28;20075;-59
2022/08/27 08:33:57;;;;;;;7.85;2.45;;;;;;;-148.16;100.00;58328.31;5036333;28;20064;-59
2022/08/27 08:36:41;;;;;;;3.63;2.20;;;;;;;-148.16;100.00;58328.31;5040801;28;20384;-59
2022/08/27 08:39:26;;;;;;;9.32;2.58;;;;;;;-148.16;100.00;58328.31;5041845;28;20051;-59
2022/08/27 08:42:38;;;;;;;4.35;2.10;;;;;;;-148.16;100.00;58328.31;5030707;28;20045;-59
2022/08/27 08:45:33;;;;;;;4.00;1.90;;;;;;;-148.16;100.00;58328.31;5032813;28;20045;-59
2022/08/27 08:48:21;;;;;;;4.35;2.30;;;;;;;-148.16;100.00;58328.31;5031591;28;20034;-59
2022/08/27 08:51:16;;;;;;;6.00;2.47;;;;;;;-148.16;100.00;58328.31;5030596;28;20056;-60
2022/08/27 08:54:05;;;;;;;5.18;2.00;;;;;;;-148.16;100.00;58328.31;5038522;28;20053;-59
2022/08/27 08:56:53;;;;;;;6.95;2.10;;;;;;;-148.16;100.00;58328.31;5030752;28;20041;-59
2022/08/27 08:59:41;;;;;;;4.30;1.88;;;;;;;-148.16;100.00;58328.31;5035233;28;20628;-59
2022/08/27 09:02:26;;;;;;;4.15;2.30;;;;;;;-148.16;100.00;58328.31;5038276;28;20124;-59
2022/08/27 09:05:10;;;;;;;4.88;2.33;;;;;;;-148.16;100.00;58328.31;5042052;28;20041;-58
2022/08/27 09:08:04;;;;;;;5.68;2.10;;;;;;;-148.16;100.00;58328.31;5039065;28;20565;-58
2022/08/27 09:10:58;;;;;;;4.78;2.28;;;;;;;-148.16;100.00;58328.31;5031606;28;20044;-58
2022/08/27 09:13:57;;;;;;;4.72;2.20;;;;;;;-148.16;100.00;58328.31;5033566;28;20061;-58
2022/08/27 09:16:42;;;;;;;3.63;1.80;;;;;;;-148.16;100.00;58328.31;5031310;28;20048;-58
2022/08/27 09:19:27;;;;;;;5.72;2.00;;;;;;;-148.16;100.00;58328.31;5034449;28;20480;-58
2022/08/27 09:22:33;;;;;;;4.05;1.92;;;;;;;-148.16;100.00;58328.31;5034737;28;20090;-58
2022/08/27 09:25:33;;;;;;;4.35;1.80;;;;;;;-148.16;100.00;58328.31;5017716;28;20072;-59
2022/08/27 09:31:28;;;;;;;5.93;1.87;;;;;;;-148.16;100.00;58328.31;5033050;28;20131;-59
2022/08/27 09:34:14;;;;;;;4.78;1.80;;;;;;;-148.16;100.00;58328.31;5041476;28;20041;-59
2022/08/27 09:37:15;;;;;;;4.03;1.50;;;;;;;-148.16;100.00;58328.31;5029059;28;20037;-59
2022/08/27 09:40:18;;;;;;;3.92;2.00;;;;;;;-148.16;100.00;58328.31;5057406;28;20037;-58
2022/08/27 09:43:16;;;;;;;3.30;1.67;;;;;;;-148.16;100.00;58328.31;5033027;28;20072;-59
2022/08/27 09:46:06;;;;;;;5.65;2.08;;;;;;;-148.16;100.00;58328.31;5021432;28;20057;-59
2022/08/27 09:48:51;;;;;;;6.25;1.88;;;;;;;-148.16;100.00;58328.31;5045738;28;20482;-58
2022/08/27 09:51:43;;;;;;;3.38;1.65;;;;;;;-148.16;100.00;58328.31;5033408;28;20376;-59
2022/08/27 09:54:45;;;;;;;4.80;1.67;;;;;;;-148.16;100.00;58328.31;5032874;28;20044;-61
2022/08/27 09:57:38;;;;;;;3.58;1.60;;;;;;;-148.16;100.00;58328.31;5033185;28;20057;-60
2022/08/27 10:00:37;;;;;;;2.78;1.35;;;;;;;-148.16;100.00;58328.31;5033188;28;20052;-60
2022/08/27 10:03:21;;;;;;;5.28;1.80;;;;;;;-148.16;100.00;58328.31;5044651;28;20207;-60
2022/08/27 10:06:07;;;;;;;3.83;1.50;;;;;;;-148.16;100.00;58328.31;5043443;28;20493;-60
2022/08/27 10:08:56;;;;;;;5.53;1.70;;;;;;;-148.16;100.00;58328.31;5040444;28;20488;-60
2022/08/27 10:12:05;;;;;;;3.88;1.60;;;;;;;-148.16;100.00;58328.31;5052656;28;20532;-59
2022/08/27 10:14:55;;;;;;;4.20;1.55;;;;;;;-148.16;100.00;58328.31;5038576;28;20045;-61
2022/08/27 10:18:07;;;;;;;3.00;1.50;;;;;;;-148.16;100.00;58328.31;5046500;28;20040;-59
2022/08/27 10:21:10;;;;;;;2.53;1.42;;;;;;;-148.16;100.00;58328.31;5042578;28;20104;-59
2022/08/27 10:23:54;;;;;;;2.65;1.70;;;;;;;-148.16;100.00;58328.31;5034888;28;20033;-58
2022/08/27 10:27:05;;;;;;;2.55;1.20;;;;;;;-148.16;100.00;58328.31;5036707;28;20471;-58
2022/08/27 10:29:55;;;;;;;3.13;1.67;;;;;;;-148.16;100.00;58328.31;5045592;28;20496;-59
2022/08/27 10:33:14;;;;;;;5.45;1.75;;;;;;;-148.16;100.00;58328.31;5033121;28;20183;-59
2022/08/27 10:36:17;;;;;;;2.50;1.70;;;;;;;-148.16;100.00;58328.31;5032934;28;20179;-59
2022/08/27 10:39:13;;;;;;;5.20;1.75;;;;;;;-148.16;100.00;58328.31;5040412;28;20041;-59
2022/08/27 10:42:17;;;;;;;3.30;1.50;;;;;;;-148.16;100.00;58328.31;5056842;28;20041;-59
2022/08/27 10:45:24;;;;;;;3.15;1.77;;;;;;;-148.16;100.00;58328.31;5042581;28;20051;-59
2022/08/27 10:48:33;;;;;;;4.88;1.98;;;;;;;-148.16;100.00;58328.31;5038247;28;20538;-59
2022/08/27 10:51:30;;;;;;;3.85;2.28;;;;;;;-148.16;100.00;58328.31;5033147;28;20041;-59
2022/08/27 10:54:25;;;;;;;2.83;1.88;;;;;;;-148.16;100.00;58328.31;5039193;28;20044;-60
2022/08/27 10:57:21;;;;;;;2.92;1.27;;;;;;;-148.16;100.00;58328.31;5038543;28;20087;-61
2022/08/27 11:00:16;;;;;;;2.80;1.63;;;;;;;-148.16;100.00;58328.31;5037344;28;20148;-58
2022/08/27 11:03:15;;;;;;;2.55;1.70;;;;;;;-148.16;100.00;58328.31;5050181;28;20107;-59
2022/08/27 11:06:10;;;;;;;3.60;1.50;;;;;;;-148.16;100.00;58328.31;5037784;28;20049;-59
2022/08/27 11:09:01;;;;;;;3.25;1.70;;;;;;;-148.16;100.00;58328.31;5034418;28;20464;-57
2022/08/27 11:12:09;;;;;;;4.03;1.70;;;;;;;-148.16;100.00;58328.31;5057596;28;20385;-58
2022/08/27 11:15:20;;;;;;;4.22;1.63;;;;;;;-148.16;100.00;58328.31;5029548;28;20037;-58
2022/08/27 11:18:09;;;;;;;7.93;1.90;;;;;;;-148.16;100.00;58328.31;5031542;28;20084;-59
2022/08/27 11:21:01;;;;;;;5.18;1.70;;;;;;;-148.16;100.00;58328.31;5032273;28;20034;-59
2022/08/27 11:23:59;;;;;;;4.10;1.35;;;;;;;-148.16;100.00;58328.31;5029684;28;20759;-58
2022/08/27 11:26:45;;;;;;;3.63;1.38;;;;;;;-148.16;100.00;58328.31;5028464;28;20132;-58
2022/08/27 11:29:37;;;;;;;4.15;1.63;;;;;;;-148.16;100.00;58328.31;5030606;28;20069;-58
2022/08/27 11:33:04;;;;;;;5.97;1.50;;;;;;;-148.16;100.00;58328.31;5031001;28;20051;-58
2022/08/27 11:36:04;;;;;;;4.65;1.60;;;;;;;-148.16;100.00;58328.31;5053127;28;20128;-57
2022/08/27 11:39:11;;;;;;;2.65;1.30;;;;;;;-148.16;100.00;58328.31;5051411;28;20064;-58
2022/08/27 11:42:08;;;;;;;1.92;1.30;;;;;;;-148.16;100.00;58328.31;5054095;28;21243;-58
2022/08/27 11:45:02;;;;;;;3.90;1.50;;;;;;;-148.16;100.00;58328.31;5046946;28;20528;-58
2022/08/27 11:47:58;;;;;;;3.03;1.35;;;;;;;-148.16;100.00;58328.31;5056436;28;20037;-59
2022/08/27 11:50:53;;;;;;;4.47;1.92;;;;;;;-148.16;100.00;58328.31;5066686;28;20091;-58
2022/08/27 11:53:42;;;;;;;6.13;1.40;;;;;;;-148.16;100.00;58328.31;5067935;28;20486;-58
2022/08/27 11:56:29;;;;;;;4.53;1.63;;;;;;;-148.16;100.00;58328.31;5057209;28;20045;-59
2022/08/27 11:59:32;;;;;;;4.25;1.80;;;;;;;-148.16;100.00;58328.31;5067490;28;20133;-59
2022/08/27 12:02:26;;;;;;;10.02;2.13;;;;;;;-148.16;100.00;58328.31;5053629;28;20367;-58
2022/08/27 12:05:31;;;;;;;4.55;1.80;;;;;;;-148.16;100.00;58328.31;5067206;28;20480;-59
2022/08/27 12:08:21;;;;;;;2.95;1.42;;;;;;;-148.16;100.00;58328.31;5062691;28;20476;-59
2022/08/27 12:11:33;;;;;;;3.17;1.23;;;;;;;-148.16;100.00;58328.31;5068297;28;20037;-59
2022/08/27 12:14:31;;;;;;;2.42;1.40;;;;;;;-148.16;100.00;58328.31;5031251;28;20033;-59
2022/08/27 12:17:29;;;;;;;3.50;1.40;;;;;;;-148.16;100.00;58328.31;5042854;28;20090;-58
2022/08/27 12:20:42;;;;;;;3.33;1.43;;;;;;;-148.16;100.00;58328.31;5033887;28;20053;-58
2022/08/27 12:24:09;;;;;;;3.50;1.40;;;;;;;-148.16;100.00;58328.31;5030104;28;20053;-58
2022/08/27 12:26:57;;;;;;;3.00;1.40;;;;;;;-148.16;100.00;58328.31;5044480;28;20119;-58
2022/08/27 12:29:49;;;;;;;2.70;1.55;;;;;;;-148.16;100.00;58328.31;5033480;28;20127;-59
2022/08/27 12:32:40;;;;;;;4.03;1.63;;;;;;;-148.16;100.00;58328.31;5047508;28;20080;-58
2022/08/27 12:35:47;;;;;;;4.15;1.35;;;;;;;-148.16;100.00;58328.31;5008716;28;20509;-57
2022/08/27 12:38:32;;;;;;;4.05;1.58;;;;;;;-148.16;100.00;58328.31;5041837;28;20045;-57
2022/08/27 12:41:30;;;;;;;10.90;1.77;;;;;;;-148.16;100.00;58328.31;5047407;28;20048;-58
2022/08/27 12:44:25;;;;;;;2.25;1.40;;;;;;;-148.16;100.00;58328.31;5047216;28;20532;-59
2022/08/27 12:47:12;;;;;;;1.67;1.25;;;;;;;-148.16;100.00;58328.31;5047490;28;20044;-58
2022/08/27 12:49:59;;;;;;;2.25;1.30;;;;;;;-148.16;100.00;58328.31;5043679;28;20064;-58
2022/08/27 12:53:02;;;;;;;4.90;1.73;;;;;;;-148.16;100.00;58328.31;5044336;28;20476;-59
2022/08/27 12:55:58;;;;;;;5.63;2.00;;;;;;;-148.16;100.00;58328.31;5029318;28;20045;-59